Time;durP1;ratioP1;P1;durP2;ratioP2;P2;SDS_P1;SDS_P2;PMS_P1;PMS_P2;Temp;Humidity;BMP_temperature;BMP_pressure;BME280_temperature;BME280_humidity;BME280_pressure;Samples;Min_cycle;Max_cycle;Signal;HPM_P1;HPM_P2
2023/06/25 00:00:29;;;;;;;4.20;2.97;;;21.70;83.70;;;;;;5054886;28;20095;-82
2023/06/25 00:02:55;;;;;;;5.43;3.00;;;21.60;84.10;;;;;;5056306;28;20040;-81
2023/06/25 00:05:21;;;;;;;5.40;2.85;;;21.60;84.90;;;;;;5056464;28;20100;-83
2023/06/25 00:07:46;;;;;;;4.43;3.15;;;21.60;84.60;;;;;;5055493;28;20028;-82
2023/06/25 00:10:12;;;;;;;5.57;3.22;;;21.40;85.30;;;;;;5055244;28;20074;-89
2023/06/25 00:12:38;;;;;;;4.25;3.03;;;21.40;86.40;;;;;;5055458;28;20048;-82
2023/06/25 00:15:05;;;;;;;4.13;3.03;;;21.30;87.20;;;;;;5019976;28;20022;-82
2023/06/25 00:17:30;;;;;;;4.32;2.80;;;21.30;87.50;;;;;;5018352;28;20029;-81
2023/06/25 00:19:57;;;;;;;7.03;2.90;;;21.20;87.90;;;;;;5018484;28;20029;-84
2023/06/25 00:22:23;;;;;;;5.13;2.85;;;21.30;88.40;;;;;;5018092;28;20490;-81
2023/06/25 00:24:49;;;;;;;5.28;3.28;;;21.20;89.00;;;;;;5018795;28;20037;-80
2023/06/25 00:27:15;;;;;;;5.20;3.35;;;21.10;90.00;;;;;;5017978;28;20071;-82
2023/06/25 00:29:40;;;;;;;4.82;3.33;;;21.00;90.20;;;;;;5018590;28;20029;-81
2023/06/25 00:32:07;;;;;;;5.25;3.22;;;20.90;90.80;;;;;;5036303;28;20029;-80
2023/06/25 00:34:41;;;;;;;7.13;3.25;;;20.90;90.90;;;;;;5018301;28;20028;-80
2023/06/25 00:37:16;;;;;;;5.00;2.90;;;20.90;91.20;;;;;;5018759;28;20036;-82
2023/06/25 00:39:45;;;;;;;4.90;3.17;;;20.90;91.60;;;;;;5036525;28;20462;-82
2023/06/25 00:42:11;;;;;;;4.28;3.10;;;20.90;91.60;;;;;;5018941;28;20033;-85
2023/06/25 00:44:40;;;;;;;4.53;3.22;;;20.80;91.70;;;;;;5018813;28;20501;-81
2023/06/25 00:47:12;;;;;;;4.20;2.67;;;20.80;91.10;;;;;;5036333;28;20021;-81
2023/06/25 00:49:42;;;;;;;6.35;3.60;;;20.80;90.90;;;;;;5018122;28;20128;-81
2023/06/25 00:52:11;;;;;;;4.25;3.10;;;20.90;90.90;;;;;;5018574;28;20471;-81
2023/06/25 00:54:41;;;;;;;4.45;3.13;;;20.90;90.90;;;;;;5016757;28;20036;-82
2023/06/25 00:57:08;;;;;;;4.32;2.92;;;20.80;90.80;;;;;;5018300;28;20044;-82
2023/06/25 00:59:43;;;;;;;4.88;3.28;;;20.90;90.70;;;;;;5017699;28;20229;-82
2023/06/25 01:02:25;;;;;;;5.43;3.13;;;20.80;90.70;;;;;;5018567;28;20038;-82
2023/06/25 01:05:02;;;;;;;4.65;3.10;;;20.80;90.90;;;;;;5019354;28;20033;-80
2023/06/25 01:07:28;;;;;;;4.60;2.90;;;20.90;91.00;;;;;;5018120;28;20084;-82
2023/06/25 01:09:55;;;;;;;4.10;3.03;;;20.80;91.00;;;;;;5017913;28;20030;-82
2023/06/25 01:12:21;;;;;;;6.25;2.83;;;20.80;91.10;;;;;;5017201;28;20029;-82
2023/06/25 01:14:49;;;;;;;4.32;2.97;;;20.80;91.10;;;;;;5034510;28;20031;-81
2023/06/25 01:17:15;;;;;;;3.60;2.80;;;20.70;91.30;;;;;;5054987;28;20109;-88
2023/06/25 01:19:41;;;;;;;5.95;3.00;;;20.70;91.40;;;;;;5036983;28;20044;-80
2023/06/25 01:22:07;;;;;;;4.18;2.95;;;20.70;91.50;;;;;;5037363;28;20079;-81
2023/06/25 01:24:36;;;;;;;4.10;2.92;;;20.60;91.60;;;;;;5037247;28;20031;-82
2023/06/25 01:27:03;;;;;;;4.65;3.20;;;20.60;91.90;;;;;;5037465;28;20021;-81
2023/06/25 01:29:30;;;;;;;4.47;3.03;;;20.60;91.90;;;;;;5036737;28;20021;-81
2023/06/25 01:31:57;;;;;;;3.90;3.05;;;20.60;91.90;;;;;;5037358;28;20029;-81
2023/06/25 01:34:22;;;;;;;5.20;3.08;;;20.50;91.90;;;;;;5036554;28;20040;-82
2023/06/25 01:36:52;;;;;;;3.60;2.90;;;20.50;92.20;;;;;;5036984;28;20386;-81
2023/06/25 01:39:19;;;;;;;3.88;2.70;;;20.50;92.20;;;;;;5036593;28;20029;-83
2023/06/25 01:41:45;;;;;;;4.95;3.28;;;20.50;92.20;;;;;;5054455;28;20041;-80
2023/06/25 01:44:31;;;;;;;4.65;3.05;;;20.50;92.20;;;;;;5024736;28;20022;-80
2023/06/25 01:46:58;;;;;;;5.05;3.00;;;20.40;92.30;;;;;;5016792;28;20072;-80
2023/06/25 01:49:24;;;;;;;6.68;3.08;;;20.40;92.40;;;;;;5016012;28;20108;-80
2023/06/25 01:51:50;;;;;;;5.32;3.30;;;20.40;92.60;;;;;;5016736;28;20172;-79
2023/06/25 01:54:16;;;;;;;3.83;3.10;;;20.40;92.60;;;;;;5016656;28;20069;-84
2023/06/25 01:56:42;;;;;;;4.93;2.88;;;20.30;92.80;;;;;;5016400;28;20026;-81
2023/06/25 01:59:08;;;;;;;5.68;3.25;;;20.30;92.90;;;;;;5034528;28;20056;-82
2023/06/25 02:01:34;;;;;;;5.95;3.42;;;20.30;93.20;;;;;;5016341;28;20033;-82
2023/06/25 02:03:59;;;;;;;5.30;3.00;;;20.20;93.10;;;;;;5016744;28;20075;-82
2023/06/25 02:06:25;;;;;;;4.90;3.22;;;20.20;93.30;;;;;;5016458;28;20075;-82
2023/06/25 02:08:51;;;;;;;6.85;3.22;;;20.20;93.50;;;;;;5017043;28;20025;-82
2023/06/25 02:11:16;;;;;;;3.45;2.72;;;20.20;93.50;;;;;;5034561;28;20029;-85
2023/06/25 02:13:42;;;;;;;4.75;3.08;;;20.10;93.50;;;;;;5016439;28;20037;-80
2023/06/25 02:16:08;;;;;;;4.45;2.97;;;20.10;93.80;;;;;;5016642;28;20427;-82
2023/06/25 02:18:34;;;;;;;5.07;3.20;;;20.00;93.90;;;;;;5016356;28;20029;-82
2023/06/25 02:21:00;;;;;;;4.10;2.97;;;20.00;94.20;;;;;;5016532;28;20514;-81
2023/06/25 02:23:25;;;;;;;3.97;2.90;;;20.00;94.30;;;;;;5016221;28;20026;-82
2023/06/25 02:25:51;;;;;;;5.68;2.95;;;20.00;94.30;;;;;;5016640;28;20061;-82
2023/06/25 02:28:17;;;;;;;4.50;3.10;;;19.90;94.30;;;;;;5016601;28;20027;-81
2023/06/25 02:30:43;;;;;;;5.00;3.22;;;19.90;94.40;;;;;;5017563;28;20459;-82
2023/06/25 02:33:09;;;;;;;4.35;3.47;;;19.90;94.70;;;;;;5034458;28;20025;-82
2023/06/25 02:35:35;;;;;;;4.53;2.88;;;19.90;94.80;;;;;;5016005;28;20455;-81
2023/06/25 02:38:00;;;;;;;5.20;3.20;;;19.80;95.30;;;;;;5016858;28;20025;-82
2023/06/25 02:40:29;;;;;;;3.83;3.05;;;19.70;95.70;;;;;;5016213;28;20044;-82
2023/06/25 02:42:55;;;;;;;7.88;3.58;;;19.70;95.80;;;;;;5016246;28;20079;-82
2023/06/25 02:45:21;;;;;;;3.67;2.92;;;19.70;95.90;;;;;;5015839;28;20121;-86
2023/06/25 02:47:47;;;;;;;5.18;3.38;;;19.60;96.00;;;;;;5016308;28;20060;-82
2023/06/25 02:50:13;;;;;;;4.55;2.95;;;19.60;96.40;;;;;;5016235;28;20034;-81
2023/06/25 02:52:38;;;;;;;4.20;2.97;;;19.50;96.50;;;;;;5016364;28;20874;-82
2023/06/25 02:55:04;;;;;;;4.88;3.00;;;19.50;96.20;;;;;;5016435;28;20095;-81
2023/06/25 02:57:30;;;;;;;5.38;3.00;;;19.60;96.10;;;;;;5015828;28;20025;-82
2023/06/25 02:59:57;;;;;;;5.47;3.50;;;19.60;96.00;;;;;;5016389;28;20045;-81
2023/06/25 03:02:23;;;;;;;5.13;3.25;;;19.60;96.50;;;;;;5015950;28;20031;-87
2023/06/25 03:04:49;;;;;;;4.88;3.63;;;19.60;96.40;;;;;;5016364;28;20029;-82
2023/06/25 03:07:14;;;;;;;4.85;3.30;;;19.60;96.70;;;;;;5016286;28;20036;-82
2023/06/25 03:09:41;;;;;;;5.18;3.05;;;19.50;96.60;;;;;;5016079;28;20034;-83
2023/06/25 03:12:07;;;;;;;4.70;3.00;;;19.60;96.60;;;;;;5016491;28;20029;-81
2023/06/25 03:14:33;;;;;;;6.80;2.97;;;19.40;97.00;;;;;;5015803;28;20386;-81
2023/06/25 03:16:59;;;;;;;4.65;3.00;;;19.40;97.20;;;;;;5017557;28;20032;-81
2023/06/25 03:19:25;;;;;;;5.40;3.17;;;19.40;97.20;;;;;;5019219;28;20033;-83
2023/06/25 03:21:50;;;;;;;6.47;3.72;;;19.40;97.20;;;;;;5020138;28;20041;-81
2023/06/25 03:24:16;;;;;;;3.97;3.20;;;19.50;97.10;;;;;;5019947;28;20120;-81
2023/06/25 03:26:41;;;;;;;3.95;2.92;;;19.40;97.20;;;;;;5037023;28;20156;-82
2023/06/25 03:29:07;;;;;;;6.30;3.40;;;19.40;97.30;;;;;;5019755;28;20032;-82
2023/06/25 03:31:33;;;;;;;4.22;3.05;;;19.40;97.50;;;;;;5037311;28;20037;-83
2023/06/25 03:33:58;;;;;;;4.50;3.20;;;19.40;97.70;;;;;;5019864;28;20371;-82
2023/06/25 03:36:25;;;;;;;4.75;3.63;;;19.50;97.70;;;;;;5019432;28;20049;-85
2023/06/25 03:38:50;;;;;;;4.43;3.28;;;19.50;97.70;;;;;;5037128;28;20156;-82
2023/06/25 03:41:16;;;;;;;4.40;3.47;;;19.50;97.90;;;;;;5019773;28;20504;-82
2023/06/25 03:43:42;;;;;;;5.80;3.58;;;19.50;98.00;;;;;;5019080;28;20421;-81
2023/06/25 03:46:07;;;;;;;5.32;3.80;;;19.50;98.40;;;;;;5019673;28;20028;-82
2023/06/25 03:48:33;;;;;;;5.18;3.55;;;19.50;98.80;;;;;;5019056;28;20029;-80
2023/06/25 03:50:59;;;;;;;6.57;3.50;;;19.40;99.10;;;;;;5019307;28;20055;-80
2023/06/25 03:53:26;;;;;;;6.50;3.28;;;19.40;99.40;;;;;;5036294;28;20036;-83
2023/06/25 03:55:51;;;;;;;6.90;3.60;;;19.40;99.60;;;;;;5019118;28;20096;-80
2023/06/25 03:58:18;;;;;;;5.32;3.53;;;19.40;99.90;;;;;;5019362;28;20467;-79
2023/06/25 04:00:44;;;;;;;5.30;3.53;;;19.40;99.90;;;;;;5018628;28;20063;-80
2023/06/25 04:03:10;;;;;;;6.97;4.15;;;19.40;99.90;;;;;;5037232;28;20033;-79
2023/06/25 04:05:36;;;;;;;8.48;3.80;;;19.50;99.90;;;;;;5018947;28;20069;-80
2023/06/25 04:08:02;;;;;;;4.90;3.70;;;19.50;99.90;;;;;;5019188;28;20053;-80
2023/06/25 04:10:28;;;;;;;8.88;3.97;;;19.50;99.90;;;;;;5018150;28;20075;-83
2023/06/25 04:12:54;;;;;;;7.85;3.40;;;19.50;99.90;;;;;;5020102;28;20083;-80
2023/06/25 04:15:19;;;;;;;5.68;3.88;;;19.50;99.90;;;;;;5038481;28;20029;-79
2023/06/25 04:17:46;;;;;;;4.43;3.63;;;19.40;99.90;;;;;;5037871;28;20032;-80
2023/06/25 04:20:13;;;;;;;6.10;3.45;;;19.40;99.90;;;;;;5038634;28;20040;-79
2023/06/25 04:22:38;;;;;;;5.07;3.58;;;19.30;99.90;;;;;;5057759;28;20107;-79
2023/06/25 04:25:05;;;;;;;6.22;4.28;;;19.30;99.90;;;;;;5038805;28;20109;-80
2023/06/25 04:27:30;;;;;;;7.20;4.18;;;19.30;99.90;;;;;;5037087;28;20032;-81
2023/06/25 04:29:56;;;;;;;6.00;3.90;;;19.40;99.90;;;;;;5038307;28;20025;-82
2023/06/25 04:32:22;;;;;;;4.50;3.53;;;19.30;99.90;;;;;;5038145;28;20123;-82
2023/06/25 04:34:47;;;;;;;5.65;3.95;;;19.30;99.90;;;;;;5037919;28;20016;-82
2023/06/25 04:37:13;;;;;;;5.53;3.70;;;19.40;99.90;;;;;;5038235;28;20029;-82
2023/06/25 04:39:39;;;;;;;6.80;3.90;;;19.40;99.90;;;;;;5055079;28;20037;-82
2023/06/25 04:42:05;;;;;;;5.22;3.35;;;19.40;99.90;;;;;;5037802;28;20131;-81
2023/06/25 04:44:31;;;;;;;5.32;3.30;;;19.40;99.90;;;;;;5036450;28;20025;-82
2023/06/25 04:46:57;;;;;;;6.93;2.95;;;19.40;99.90;;;;;;5038040;28;20028;-81
2023/06/25 04:49:22;;;;;;;7.55;3.80;;;19.40;99.90;;;;;;5037790;28;20116;-81
2023/06/25 04:51:48;;;;;;;5.65;3.47;;;19.40;99.90;;;;;;5037001;28;20033;-81
2023/06/25 04:54:13;;;;;;;6.15;3.70;;;19.40;99.90;;;;;;5037752;28;20024;-81
2023/06/25 04:56:39;;;;;;;5.22;3.55;;;19.40;99.90;;;;;;5037143;28;20094;-81
2023/06/25 04:59:05;;;;;;;6.63;3.60;;;19.30;99.90;;;;;;5037416;28;20053;-81
2023/06/25 05:01:30;;;;;;;7.32;3.67;;;19.40;99.90;;;;;;5036823;28;20029;-87
2023/06/25 05:03:56;;;;;;;6.82;3.60;;;19.50;99.90;;;;;;5037694;28;20025;-81
2023/06/25 05:06:21;;;;;;;4.43;3.05;;;19.50;99.90;;;;;;5037079;28;20078;-81
2023/06/25 05:08:47;;;;;;;5.25;3.50;;;19.50;99.90;;;;;;5038669;28;20021;-81
2023/06/25 05:11:13;;;;;;;4.50;3.58;;;19.50;99.90;;;;;;5055082;28;20033;-81
2023/06/25 05:13:38;;;;;;;5.18;3.47;;;19.60;99.90;;;;;;5033714;28;20121;-79
2023/06/25 05:16:04;;;;;;;6.25;3.47;;;19.50;99.90;;;;;;5018357;28;20026;-80
2023/06/25 05:18:30;;;;;;;6.70;3.60;;;19.60;99.90;;;;;;5017284;28;20041;-84
2023/06/25 05:20:55;;;;;;;4.40;3.35;;;19.70;99.90;;;;;;5017493;28;20037;-80
2023/06/25 05:23:21;;;;;;;6.00;3.55;;;19.70;99.90;;;;;;5017412;28;20488;-80
2023/06/25 05:25:47;;;;;;;5.55;3.78;;;19.70;99.90;;;;;;5034746;28;20026;-79
2023/06/25 05:28:13;;;;;;;6.85;4.13;;;19.80;99.90;;;;;;5035290;28;20025;-80
2023/06/25 05:30:38;;;;;;;5.95;3.65;;;19.80;99.90;;;;;;5017938;28;20471;-81
2023/06/25 05:33:04;;;;;;;6.57;3.22;;;19.80;99.90;;;;;;5050425;28;20017;-80
2023/06/25 05:35:29;;;;;;;5.45;3.53;;;19.80;99.90;;;;;;5038671;28;20083;-86
2023/06/25 05:37:58;;;;;;;5.47;3.75;;;19.90;99.90;;;;;;5036291;28;20525;-81
2023/06/25 05:40:26;;;;;;;5.53;3.60;;;19.90;99.90;;;;;;5039690;28;20032;-81
2023/06/25 05:42:51;;;;;;;4.90;3.30;;;20.00;99.90;;;;;;5050918;28;20421;-80
2023/06/25 05:45:17;;;;;;;7.03;3.70;;;20.00;99.90;;;;;;5031379;28;20036;-82
2023/06/25 05:47:43;;;;;;;6.93;3.40;;;20.10;99.90;;;;;;5036017;28;20029;-81
2023/06/25 05:50:09;;;;;;;6.88;3.88;;;20.10;99.90;;;;;;5036114;28;20116;-81
2023/06/25 05:52:35;;;;;;;4.60;3.40;;;20.10;99.90;;;;;;5035625;28;20029;-82
2023/06/25 05:55:00;;;;;;;6.40;3.50;;;20.20;99.90;;;;;;5053855;28;20040;-79
2023/06/25 05:57:26;;;;;;;5.57;3.60;;;20.30;99.90;;;;;;5053085;28;20024;-81
2023/06/25 05:59:51;;;;;;;9.02;3.63;;;20.30;99.90;;;;;;5047009;28;20033;-80
2023/06/25 06:02:17;;;;;;;5.50;3.33;;;20.30;99.90;;;;;;5033721;28;20094;-82
2023/06/25 06:04:43;;;;;;;5.90;3.40;;;20.40;99.90;;;;;;5026937;28;20047;-80
2023/06/25 06:07:08;;;;;;;4.65;3.17;;;20.40;99.90;;;;;;5053998;28;20465;-80
2023/06/25 06:09:34;;;;;;;6.53;3.70;;;20.40;99.80;;;;;;5050319;28;20102;-81
2023/06/25 06:12:00;;;;;;;4.82;3.28;;;20.50;99.70;;;;;;5051003;28;20025;-81
2023/06/25 06:14:25;;;;;;;4.65;3.60;;;20.60;99.60;;;;;;5040855;28;20060;-82
2023/06/25 06:16:51;;;;;;;4.43;3.08;;;20.60;99.60;;;;;;5028253;28;20020;-79
2023/06/25 06:19:16;;;;;;;6.45;3.40;;;20.70;99.30;;;;;;5036913;28;20025;-81
2023/06/25 06:21:42;;;;;;;4.50;3.33;;;20.70;99.60;;;;;;5047466;28;20501;-81
2023/06/25 06:24:08;;;;;;;4.75;3.50;;;20.70;98.90;;;;;;5051574;28;20021;-80
2023/06/25 06:26:37;;;;;;;5.93;2.95;;;20.80;98.90;;;;;;5036705;28;20036;-86
2023/06/25 06:29:03;;;;;;;6.10;3.08;;;20.90;98.90;;;;;;5053415;28;20021;-81
2023/06/25 06:31:31;;;;;;;5.80;3.20;;;20.90;98.90;;;;;;5048598;28;20099;-81
2023/06/25 06:33:57;;;;;;;4.85;3.20;;;20.90;99.00;;;;;;5041486;28;20459;-81
2023/06/25 06:36:23;;;;;;;9.82;4.15;;;21.00;98.50;;;;;;5041030;28;20021;-79
2023/06/25 06:38:49;;;;;;;6.07;3.47;;;21.00;98.20;;;;;;5045403;28;20120;-81
2023/06/25 06:41:14;;;;;;;4.28;3.22;;;21.00;98.10;;;;;;5047954;28;20035;-83
2023/06/25 06:43:40;;;;;;;5.13;3.15;;;21.10;97.90;;;;;;5054564;28;20104;-82
2023/06/25 06:46:05;;;;;;;4.35;3.30;;;21.20;97.90;;;;;;5054535;28;20105;-82
2023/06/25 06:48:31;;;;;;;7.78;3.35;;;21.20;97.90;;;;;;5037037;28;20481;-81
2023/06/25 06:50:56;;;;;;;6.78;3.50;;;21.30;97.80;;;;;;5036672;28;20033;-83
2023/06/25 06:53:22;;;;;;;6.97;3.40;;;21.30;97.40;;;;;;5040131;28;20032;-82
2023/06/25 06:55:48;;;;;;;4.57;2.75;;;21.40;97.50;;;;;;5040223;28;20020;-87
2023/06/25 06:58:13;;;;;;;4.25;2.88;;;21.40;97.40;;;;;;5042452;28;20025;-80
2023/06/25 07:00:39;;;;;;;3.92;3.00;;;21.50;97.10;;;;;;5038765;28;20087;-80
2023/06/25 07:03:04;;;;;;;5.35;3.20;;;21.50;97.00;;;;;;5031360;28;20128;-78
2023/06/25 07:05:30;;;;;;;6.65;3.30;;;21.60;97.10;;;;;;5055501;28;20029;-77
2023/06/25 07:07:56;;;;;;;4.50;2.95;;;21.60;97.10;;;;;;5038460;28;20469;-78
2023/06/25 07:10:21;;;;;;;5.93;3.40;;;21.60;97.20;;;;;;5048776;28;20031;-78
2023/06/25 07:12:47;;;;;;;6.55;3.10;;;21.70;97.20;;;;;;5056439;28;20054;-80
2023/06/25 07:15:12;;;;;;;5.75;3.30;;;21.70;97.00;;;;;;5020050;28;20030;-80
2023/06/25 07:17:38;;;;;;;5.63;3.63;;;21.70;96.90;;;;;;5020130;28;20025;-80
2023/06/25 07:20:05;;;;;;;4.22;3.08;;;21.70;96.70;;;;;;5025491;28;20025;-81
2023/06/25 07:22:32;;;;;;;4.30;3.25;;;21.80;96.80;;;;;;5056047;28;20505;-85
2023/06/25 07:24:58;;;;;;;6.32;3.60;;;21.90;96.60;;;;;;5058912;28;20112;-81
2023/06/25 07:27:24;;;;;;;4.45;3.08;;;21.90;96.50;;;;;;5055502;28;20032;-82
2023/06/25 07:29:50;;;;;;;6.00;3.08;;;22.00;96.30;;;;;;5054969;28;20029;-82
2023/06/25 07:32:15;;;;;;;6.25;3.05;;;22.00;96.30;;;;;;5037604;28;20107;-82
2023/06/25 07:34:41;;;;;;;4.20;3.10;;;22.10;96.10;;;;;;5056444;28;20104;-81
2023/06/25 07:37:07;;;;;;;6.47;3.03;;;22.10;95.90;;;;;;5048776;28;20071;-87
2023/06/25 07:39:33;;;;;;;5.30;3.22;;;22.20;95.80;;;;;;5050335;28;20036;-91
2023/06/25 07:41:59;;;;;;;4.65;2.97;;;22.20;95.60;;;;;;5041140;28;20029;-92
2023/06/25 07:44:25;;;;;;;5.10;3.20;;;22.20;95.80;;;;;;5036197;28;20039;-89
2023/06/25 07:46:51;;;;;;;4.55;3.03;;;22.30;95.80;;;;;;5058049;28;20088;-90
2023/06/25 07:49:17;;;;;;;6.50;3.25;;;22.40;95.60;;;;;;5044291;28;20043;-90
2023/06/25 07:51:49;;;;;;;4.50;3.10;;;22.50;95.30;;;;;;5037095;28;20048;-90
2023/06/25 07:54:14;;;;;;;4.82;3.00;;;22.50;95.20;;;;;;5040705;28;20020;-90
2023/06/25 07:56:41;;;;;;;5.10;3.05;;;22.50;95.10;;;;;;5049314;28;20074;-92
2023/06/25 07:59:07;;;;;;;4.90;3.30;;;22.50;94.80;;;;;;5045797;28;20048;-91
2023/06/25 08:01:32;;;;;;;4.00;3.05;;;22.60;94.70;;;;;;5044377;28;20037;-86
2023/06/25 08:03:58;;;;;;;5.20;3.15;;;22.60;94.40;;;;;;5041978;28;20024;-87
2023/06/25 08:06:24;;;;;;;5.07;3.00;;;22.70;94.50;;;;;;5055876;28;20151;-86
2023/06/25 08:08:49;;;;;;;4.82;2.85;;;22.70;94.20;;;;;;5055065;28;20029;-85
2023/06/25 08:11:15;;;;;;;7.30;3.53;;;22.80;93.80;;;;;;5055485;28;20032;-85
2023/06/25 08:13:41;;;;;;;5.07;3.40;;;22.90;93.50;;;;;;5036697;28;20037;-84
2023/06/25 08:16:06;;;;;;;5.70;3.40;;;22.90;93.50;;;;;;5047928;28;20121;-89
2023/06/25 08:18:32;;;;;;;5.90;3.70;;;22.90;93.50;;;;;;5047466;28;20036;-89
2023/06/25 08:20:57;;;;;;;4.43;3.10;;;23.00;93.10;;;;;;5047269;28;20044;-94
2023/06/25 08:23:23;;;;;;;5.82;4.03;;;23.10;93.00;;;;;;5042178;28;20108;-86
2023/06/25 08:25:49;;;;;;;5.57;4.03;;;23.10;92.50;;;;;;5040776;28;20021;-87
2023/06/25 08:28:14;;;;;;;8.35;4.50;;;23.20;92.30;;;;;;5037031;28;20140;-95
2023/06/25 08:30:40;;;;;;;5.80;3.30;;;23.20;91.60;;;;;;5047087;28;20028;-88
2023/06/25 08:33:06;;;;;;;4.97;3.40;;;23.30;91.00;;;;;;5037135;28;20465;-87
2023/06/25 08:35:32;;;;;;;6.90;3.55;;;23.30;90.60;;;;;;5044589;28;20454;-92
2023/06/25 08:37:57;;;;;;;5.32;3.42;;;23.40;90.50;;;;;;5042986;28;20029;-86
2023/06/25 08:40:26;;;;;;;5.07;3.28;;;23.40;90.20;;;;;;5041134;28;20017;-88
2023/06/25 08:42:52;;;;;;;4.35;2.95;;;23.40;89.50;;;;;;5041836;28;20189;-90
2023/06/25 08:45:18;;;;;;;6.30;3.53;;;23.50;89.80;;;;;;5037822;28;20021;-94
2023/06/25 08:47:45;;;;;;;6.70;3.10;;;23.60;88.40;;;;;;5047067;28;20033;-94
2023/06/25 08:50:11;;;;;;;7.30;3.45;;;23.60;88.00;;;;;;5047765;28;20025;-89
2023/06/25 08:52:38;;;;;;;4.15;3.05;;;23.70;87.70;;;;;;5046996;28;20394;-89
2023/06/25 08:55:09;;;;;;;5.80;3.38;;;23.70;87.60;;;;;;5040519;28;20021;-88
2023/06/25 08:57:35;;;;;;;4.93;3.13;;;23.80;84.40;;;;;;5037356;28;20454;-86
2023/06/25 09:00:02;;;;;;;5.05;3.63;;;23.90;83.50;;;;;;5046973;28;20043;-88
2023/06/25 09:02:28;;;;;;;5.70;3.50;;;23.90;81.60;;;;;;5054256;28;20045;-93
2023/06/25 09:05:05;;;;;;;4.57;2.92;;;24.00;81.60;;;;;;5031868;28;20025;-88
2023/06/25 09:07:42;;;;;;;6.28;3.60;;;24.20;79.60;;;;;;5038438;28;20037;-90
2023/06/25 09:10:08;;;;;;;5.80;3.42;;;24.30;78.90;;;;;;5049424;28;20485;-89
2023/06/25 09:12:33;;;;;;;8.40;3.50;;;24.40;77.00;;;;;;5058912;28;20052;-89
2023/06/25 09:14:59;;;;;;;5.53;3.38;;;24.30;77.00;;;;;;5034960;28;20155;-89
2023/06/25 09:17:24;;;;;;;5.70;3.60;;;24.30;76.40;;;;;;5047764;28;20253;-90
2023/06/25 09:19:51;;;;;;;5.80;3.47;;;24.40;76.40;;;;;;5058540;28;20025;-95
2023/06/25 09:22:17;;;;;;;5.68;3.20;;;24.50;75.00;;;;;;5064078;28;20386;-88
2023/06/25 09:24:44;;;;;;;4.78;2.75;;;24.50;75.60;;;;;;5031735;28;20025;-91
2023/06/25 09:27:10;;;;;;;5.45;2.80;;;24.60;74.80;;;;;;5055590;28;20024;-91
2023/06/25 09:29:37;;;;;;;5.28;3.35;;;24.60;72.70;;;;;;5043573;28;20124;-91
2023/06/25 09:32:10;;;;;;;5.88;3.13;;;24.70;72.80;;;;;;5046376;28;20032;-91
2023/06/25 09:34:39;;;;;;;4.53;3.03;;;24.70;73.20;;;;;;5034477;28;20104;-86
2023/06/25 09:37:05;;;;;;;5.40;3.22;;;24.80;73.50;;;;;;5033204;28;20025;-83
2023/06/25 09:39:31;;;;;;;4.15;3.10;;;24.90;71.40;;;;;;5042129;28;20029;-93
2023/06/25 09:41:57;;;;;;;4.38;3.13;;;25.00;70.60;;;;;;5036281;28;20032;-84
2023/06/25 09:44:23;;;;;;;4.25;2.97;;;25.10;69.80;;;;;;5038480;28;20112;-87
2023/06/25 09:46:52;;;;;;;7.53;2.90;;;25.10;68.60;;;;;;5052080;28;20025;-84
2023/06/25 09:49:19;;;;;;;5.15;2.85;;;25.20;69.10;;;;;;5042136;28;20024;-86
2023/06/25 09:51:53;;;;;;;4.50;2.72;;;25.30;68.30;;;;;;5053831;28;20047;-85
2023/06/25 09:54:21;;;;;;;4.68;2.63;;;25.30;66.70;;;;;;5050263;28;20153;-85
2023/06/25 09:56:49;;;;;;;4.53;2.60;;;25.40;65.60;;;;;;5051898;28;20025;-87
2023/06/25 09:59:16;;;;;;;4.38;2.45;;;25.40;65.20;;;;;;5041387;28;20467;-85
2023/06/25 10:01:42;;;;;;;4.38;2.90;;;25.50;65.90;;;;;;5037833;28;20039;-86
2023/06/25 10:04:08;;;;;;;4.40;2.92;;;25.50;64.20;;;;;;5053049;28;20048;-88
2023/06/25 10:06:35;;;;;;;4.55;2.80;;;25.50;64.10;;;;;;5052164;28;20481;-87
2023/06/25 10:09:03;;;;;;;4.28;2.60;;;25.50;64.70;;;;;;5046156;28;20021;-88
2023/06/25 10:11:29;;;;;;;4.70;2.50;;;25.60;63.20;;;;;;5035116;28;20100;-90
2023/06/25 10:13:56;;;;;;;5.50;2.90;;;25.70;60.60;;;;;;5039184;28;20110;-91
2023/06/25 10:16:22;;;;;;;4.85;2.75;;;25.70;60.80;;;;;;5055750;28;20025;-92
2023/06/25 10:18:48;;;;;;;3.97;2.55;;;25.70;59.90;;;;;;5053506;28;20032;-94
2023/06/25 10:21:22;;;;;;;5.50;2.42;;;25.90;59.90;;;;;;5037667;28;20037;-94
2023/06/25 10:24:02;;;;;;;4.43;2.15;;;25.90;59.50;;;;;;5046854;28;20029;-93
2023/06/25 10:26:29;;;;;;;4.57;2.53;;;25.90;57.90;;;;;;5050281;28;20021;-93
2023/06/25 10:28:56;;;;;;;3.75;2.35;;;26.00;57.10;;;;;;5052667;28;20028;-94
2023/06/25 10:31:21;;;;;;;4.40;2.25;;;26.10;57.60;;;;;;5055317;28;20044;-90
2023/06/25 10:33:47;;;;;;;3.97;2.33;;;26.20;58.00;;;;;;5037733;28;20033;-90
2023/06/25 10:36:13;;;;;;;4.03;2.50;;;26.20;56.90;;;;;;5039473;28;20019;-95
2023/06/25 10:38:39;;;;;;;4.25;2.78;;;26.30;58.00;;;;;;5051895;28;20021;-88
2023/06/25 10:41:05;;;;;;;3.58;2.08;;;26.40;56.50;;;;;;5053701;28;20382;-88
2023/06/25 10:43:30;;;;;;;3.65;2.50;;;26.30;56.90;;;;;;5029145;28;20036;-89
2023/06/25 10:45:57;;;;;;;3.63;2.38;;;26.20;54.30;;;;;;5029372;28;20029;-89
2023/06/25 10:48:24;;;;;;;2.88;2.03;;;26.40;54.50;;;;;;5038957;28;20025;-87
2023/06/25 10:50:51;;;;;;;4.70;2.67;;;26.40;54.70;;;;;;5052808;28;20029;-90
2023/06/25 10:53:19;;;;;;;4.00;2.30;;;26.50;55.60;;;;;;5046872;28;20029;-89
2023/06/25 10:55:47;;;;;;;4.95;2.83;;;26.50;54.50;;;;;;5051055;28;20036;-88
2023/06/25 10:58:20;;;;;;;4.82;2.40;;;26.60;54.70;;;;;;5022963;28;20034;-84
2023/06/25 11:00:53;;;;;;;3.95;2.45;;;26.60;53.00;;;;;;5028219;28;20057;-87
2023/06/25 11:03:19;;;;;;;4.85;2.65;;;26.70;53.30;;;;;;5047885;28;20018;-87
2023/06/25 11:05:47;;;;;;;3.92;2.70;;;26.70;52.60;;;;;;5035538;28;20021;-88
2023/06/25 11:08:14;;;;;;;3.65;2.35;;;26.60;52.70;;;;;;5036537;28;20048;-88
2023/06/25 11:10:41;;;;;;;3.70;2.55;;;26.70;52.40;;;;;;5053746;28;20581;-87
2023/06/25 11:13:11;;;;;;;5.13;2.78;;;26.70;51.60;;;;;;5032507;28;20060;-86
2023/06/25 11:15:37;;;;;;;3.90;2.60;;;26.80;52.90;;;;;;5038234;28;20033;-83
2023/06/25 11:18:03;;;;;;;6.35;2.67;;;26.80;52.00;;;;;;5048299;28;20083;-81
2023/06/25 11:20:29;;;;;;;5.18;2.95;;;26.80;53.10;;;;;;5025840;28;20028;-83
2023/06/25 11:23:04;;;;;;;5.10;2.47;;;26.80;53.60;;;;;;5029311;28;20042;-84
2023/06/25 11:25:30;;;;;;;3.83;2.80;;;26.90;52.40;;;;;;5024182;28;20090;-82
2023/06/25 11:28:01;;;;;;;3.55;2.63;;;27.00;50.40;;;;;;5040967;28;20021;-82
2023/06/25 11:30:28;;;;;;;5.15;3.10;;;27.00;50.20;;;;;;5049257;28;20119;-83
2023/06/25 11:32:55;;;;;;;4.53;2.60;;;27.10;50.40;;;;;;5038645;28;20033;-82
2023/06/25 11:35:20;;;;;;;3.70;2.45;;;27.10;51.90;;;;;;5052319;28;20469;-82
2023/06/25 11:37:49;;;;;;;4.47;2.90;;;27.20;50.40;;;;;;5052468;28;20156;-83
2023/06/25 11:40:22;;;;;;;6.68;2.80;;;27.20;51.20;;;;;;5044714;28;20035;-82
2023/06/25 11:42:48;;;;;;;5.28;3.17;;;27.30;51.40;;;;;;5029550;28;20044;-83
2023/06/25 11:45:13;;;;;;;4.82;2.90;;;27.40;52.10;;;;;;5037168;28;20017;-83
2023/06/25 11:47:45;;;;;;;4.75;2.92;;;27.60;52.10;;;;;;5054560;28;20024;-82
2023/06/25 11:50:11;;;;;;;4.30;2.83;;;27.60;51.50;;;;;;5047697;28;20381;-82
2023/06/25 11:52:37;;;;;;;4.20;2.90;;;27.50;49.20;;;;;;5047547;28;20123;-83
2023/06/25 11:55:06;;;;;;;4.82;3.08;;;27.50;50.80;;;;;;5054828;28;20024;-82
2023/06/25 11:57:32;;;;;;;5.00;3.20;;;27.60;51.90;;;;;;5052626;28;20029;-90
2023/06/25 11:59:57;;;;;;;7.20;2.92;;;27.70;51.50;;;;;;5041474;28;20497;-93
2023/06/25 12:02:23;;;;;;;4.90;3.40;;;27.90;51.10;;;;;;5036219;28;20030;-84
2023/06/25 12:04:49;;;;;;;4.70;2.90;;;27.90;49.10;;;;;;5032664;28;20052;-93
2023/06/25 12:07:14;;;;;;;5.38;3.03;;;27.90;49.90;;;;;;5036725;28;20029;-90
2023/06/25 12:09:40;;;;;;;4.80;3.05;;;28.00;51.60;;;;;;5037222;28;20442;-93
2023/06/25 12:12:06;;;;;;;4.82;3.30;;;28.10;52.80;;;;;;5035144;28;20036;-92
2023/06/25 12:14:32;;;;;;;3.85;2.97;;;28.20;51.90;;;;;;5038045;28;20038;-92
2023/06/25 12:16:57;;;;;;;6.38;3.60;;;28.20;52.10;;;;;;5036093;28;20365;-93
2023/06/25 12:19:23;;;;;;;4.47;3.38;;;28.20;51.70;;;;;;5037661;28;20116;-85
2023/06/25 12:21:49;;;;;;;4.57;3.08;;;28.20;51.80;;;;;;5033148;28;20068;-93
2023/06/25 12:24:14;;;;;;;5.32;3.30;;;28.20;52.90;;;;;;5031942;28;20088;-86
2023/06/25 12:26:40;;;;;;;5.20;3.17;;;28.30;53.20;;;;;;5028647;28;20049;-92
2023/06/25 12:29:06;;;;;;;4.47;3.00;;;28.30;52.60;;;;;;5032763;28;20034;-89
2023/06/25 12:31:32;;;;;;;6.28;3.60;;;28.40;53.10;;;;;;5036539;28;20032;-91
2023/06/25 12:33:57;;;;;;;4.20;3.03;;;28.50;53.30;;;;;;5035055;28;20037;-90
2023/06/25 12:36:23;;;;;;;5.90;3.50;;;28.70;53.10;;;;;;5034278;28;20068;-90
2023/06/25 12:38:48;;;;;;;6.07;3.40;;;28.70;53.60;;;;;;5037617;28;20032;-86
2023/06/25 12:41:14;;;;;;;4.88;3.00;;;28.80;51.30;;;;;;5027798;28;20384;-88
2023/06/25 12:43:39;;;;;;;5.50;3.45;;;28.80;51.00;;;;;;5018940;28;20084;-92